Tiksy — UFVH — position and weather

sailwx.info

Track history (hours):
 
Tides and Currents Weather Stations Pressure Air Temp Water Temp Dewpoint Dewpoint Depression Visibility Wind Speed Wind Dir Waves Ship Positions

Tiksy

Last reported at 2017-Oct-17 08:13 UTC. Time now 2017-Oct-22 13:35 UTC.
Position N 36°07' E 014°59'.

Length 130 m; draft 9 m.

Type: Cargo ship. MMSI: 273396870.

Date/timePositionNaut miles runAvg speedWind from/ knotsBaromVisibWave heightAir tempDewpointWater temp
2017-Oct-17 08:13N 36°07' E 014°59'411.4
2017-Oct-17 07:52N 36°09' E 014°55'611.4
2017-Oct-17 07:22N 36°11' E 014°49'411.4
2017-Oct-17 07:00N 36°13' E 014°44'611.5
2017-Oct-17 06:30N 36°14' E 014°37'611.6
2017-Oct-17 06:00N 36°16' E 014°30'611.7
2017-Oct-17 05:30N 36°18' E 014°23'611.6
2017-Oct-17 05:00N 36°20' E 014°17'611.4
2017-Oct-17 04:30N 36°22' E 014°10'611.4
2017-Oct-17 04:00N 36°24' E 014°03'510.7
2017-Oct-17 03:30N 36°25' E 013°57'611.5
2017-Oct-17 03:00N 36°27' E 013°50'611.5
2017-Oct-17 02:31N 36°29' E 013°44'611.4
2017-Oct-17 02:00N 36°31' E 013°37'611.3
2017-Oct-17 01:31N 36°33' E 013°31'611.2
2017-Oct-17 01:01N 36°35' E 013°24'611.2
2017-Oct-17 00:30N 36°37' E 013°18'611.3
2017-Oct-17 00:00N 36°39' E 013°11'611.5
2017-Oct-16 23:28N 36°41' E 013°04'611.6
2017-Oct-16 22:55N 36°43' E 012°56'511.4
2017-Oct-16 22:28N 36°46' E 012°50'511.4
2017-Oct-16 22:00N 36°48' E 012°45'611.4
2017-Oct-16 21:29N 36°50' E 012°38'611.3
2017-Oct-16 21:00N 36°52' E 012°31'510.8
2017-Oct-16 20:30N 36°56' E 012°27'611.3
2017-Oct-16 20:00N 36°58' E 012°20'611.4
2017-Oct-16 19:30N 37°00' E 012°14'1011.6
2017-Oct-16 18:41N 37°04' E 012°02'211.5
2017-Oct-16 18:30N 37°04' E 011°60'711.7
2017-Oct-16 17:56N 37°07' E 011°52'1611.3
2017-Oct-16 16:33N 37°13' E 011°34'111.3
2017-Oct-16 16:29N 37°13' E 011°33'711.3
2017-Oct-16 15:54N 37°16' E 011°25'3811.1
2017-Oct-16 12:31N 37°28' E 010°41'011.5
2017-Oct-16 12:29N 37°28' E 010°40'41610.9
2017-Oct-14 22:16N 36°51' E 001°60'411.3
2017-Oct-14 21:56N 36°51' E 001°55'511.2
2017-Oct-14 21:30N 36°50' E 001°49'610.9
2017-Oct-14 20:57N 36°49' E 001°42'2211.0
2017-Oct-14 18:56N 36°46' E 001°15'1810.5
2017-Oct-14 17:15N 36°43' E 000°53'410.9
2017-Oct-14 16:51N 36°42' E 000°47'411.0
2017-Oct-14 16:30N 36°42' E 000°43'811.0
2017-Oct-14 15:45N 36°41' E 000°32'311.1
2017-Oct-14 15:27N 36°40' E 000°28'511.0
2017-Oct-14 15:00N 36°40' E 000°22'611.2
2017-Oct-14 14:29N 36°39' E 000°15'4011.2
2017-Oct-14 10:53N 36°33' W 000°35'511.3
2017-Oct-14 10:28N 36°32' W 000°40'511.2
2017-Oct-14 10:00N 36°32' W 000°47'610.9
2017-Oct-14 09:27N 36°31' W 000°54'810.8
2017-Oct-14 08:41N 36°29' W 001°04'811.0
2017-Oct-14 07:57N 36°28' W 001°14'811.3
2017-Oct-14 07:16N 36°27' W 001°24'1211.3
2017-Oct-14 06:15N 36°25' W 001°38'311.3
2017-Oct-14 06:00N 36°25' W 001°42'17111.5
2017-Oct-13 15:04N 36°00' W 005°11'111.8
2017-Oct-13 15:00N 35°60' W 005°12'612.5
2017-Oct-13 14:30N 35°58' W 005°20'612.8
2017-Oct-13 14:01N 35°57' W 005°27'12410.7
2017-Oct-13 02:27N 36°17' W 007°59'910.7
2017-Oct-13 01:38N 36°19' W 008°09'410.4
2017-Oct-13 01:17N 36°20' W 008°13'410.6
2017-Oct-13 00:54N 36°21' W 008°18'510.7
2017-Oct-13 00:26N 36°22' W 008°24'511.0
2017-Oct-12 23:59N 36°24' W 008°30'611.0
2017-Oct-12 23:24N 36°25' W 008°38'511.6
2017-Oct-12 22:58N 36°27' W 008°44'511.3
2017-Oct-12 22:30N 36°28' W 008°50'511.2
2017-Oct-12 22:00N 36°29' W 008°57'611.6
2017-Oct-12 21:30N 36°31' W 009°04'911.7
2017-Oct-12 20:44N 36°33' W 009°15'411.2
2017-Oct-12 20:20N 36°36' W 009°19'411.6
2017-Oct-12 20:00N 36°38' W 009°23'8310.9
2017-Oct-12 12:20N 37°58' W 009°54'411.1
2017-Oct-12 12:00N 38°02' W 009°55'611.3
2017-Oct-12 11:31N 38°07' W 009°57'2311.2
2017-Oct-12 09:29N 38°29' W 010°03'610.8
2017-Oct-12 08:58N 38°35' W 010°05'511.0
2017-Oct-12 08:31N 38°40' W 010°07'510.9
2017-Oct-12 08:00N 38°45' W 010°07'510.6
2017-Oct-12 07:30N 38°51' W 010°07'610.7
2017-Oct-12 06:59N 38°56' W 010°07'510.4
2017-Oct-12 06:31N 39°01' W 010°07'510.2
2017-Oct-12 06:01N 39°06' W 010°07'510.8
2017-Oct-12 05:30N 39°12' W 010°07'511.0
2017-Oct-12 05:01N 39°17' W 010°07'510.9
2017-Oct-12 04:31N 39°22' W 010°07'611.2
2017-Oct-12 04:00N 39°28' W 010°07'510.6
2017-Oct-12 03:31N 39°33' W 010°07'510.6
2017-Oct-12 03:00N 39°39' W 010°07'510.7
2017-Oct-12 02:30N 39°44' W 010°07'611.1
2017-Oct-12 02:01N 39°50' W 010°07'610.9
2017-Oct-12 01:30N 39°55' W 010°07'510.7
2017-Oct-12 01:00N 40°00' W 010°07'510.5
2017-Oct-12 00:30N 40°06' W 010°07'510.9
2017-Oct-12 00:00N 40°11' W 010°07'1411.1
2017-Oct-11 22:43N 40°25' W 010°07'211.2
2017-Oct-11 22:30N 40°28' W 010°07'  
2017-Oct-09 06:53N 51°46' W 005°56'511.4
2017-Oct-09 06:25N 51°51' W 005°54'512.1
2017-Oct-09 06:01N 51°56' W 005°53'712.8
2017-Oct-09 05:29N 52°03' W 005°51'613.3
2017-Oct-09 05:00N 52°09' W 005°50'714.1
2017-Oct-09 04:30N 52°16' W 005°48'714.3
2017-Oct-09 04:00N 52°23' W 005°46'714.4
2017-Oct-09 03:30N 52°30' W 005°44'714.3
2017-Oct-09 03:00N 52°37' W 005°42'7911.1
2017-Oct-08 19:53N 53°55' W 005°22'411.4
2017-Oct-08 19:30N 53°60' W 005°21'611.5
2017-Oct-08 19:00N 54°05' W 005°19'611.6
2017-Oct-08 18:30N 54°11' W 005°18'611.3
2017-Oct-08 18:00N 54°17' W 005°16'511.0
2017-Oct-08 17:30N 54°22' W 005°15'510.4
2017-Oct-08 17:00N 54°27' W 005°13'4 8.9
2017-Oct-08 16:30N 54°32' W 005°14'5 9.5
2017-Oct-08 16:00N 54°36' W 005°18'4 8.9
2017-Oct-08 15:30N 54°40' W 005°22'4 8.4
2017-Oct-08 15:00N 54°43' W 005°26'4 8.6
2017-Oct-08 14:30N 54°47' W 005°30'5 9.5
2017-Oct-08 14:00N 54°51' W 005°34'5 9.6
2017-Oct-08 13:30N 54°55' W 005°38'510.3
2017-Oct-08 13:00N 54°59' W 005°43'711.3
2017-Oct-08 12:23N 55°06' W 005°49'612.9
2017-Oct-08 11:54N 55°11' W 005°55'513.9
2017-Oct-08 11:30N 55°16' W 005°60'714.0
2017-Oct-08 11:00N 55°21' W 006°08'713.4
2017-Oct-08 10:30N 55°23' W 006°19'713.7
2017-Oct-08 10:01N 55°27' W 006°29'714.0
2017-Oct-08 09:31N 55°32' W 006°37'714.6
2017-Oct-08 09:01N 55°38' W 006°45'714.5
2017-Oct-08 08:30N 55°44' W 006°53'712.8
2017-Oct-08 07:57N 55°49' W 007°00'611.7
2017-Oct-08 07:28N 55°54' W 007°06'  
Track history (hours):
 
Tides and Currents Weather Stations Pressure Air Temp Water Temp Dewpoint Dewpoint Depression Visibility Wind Speed Wind Dir Waves Ship Positions

Tiksy

Last reported at 2017-Oct-17 08:13 UTC. Time now 2017-Oct-22 13:35 UTC.
Position N 36°07' E 014°59'.

Length 130 m; draft 9 m.

Type: Cargo ship. MMSI: 273396870.

Date/timePositionNaut miles runAvg speedWind from/ knotsBaromVisibWave heightAir tempDewpointWater temp
2017-Oct-17 08:13N 36°07' E 014°59'411.4
2017-Oct-17 07:52N 36°09' E 014°55'611.4
2017-Oct-17 07:22N 36°11' E 014°49'411.4
2017-Oct-17 07:00N 36°13' E 014°44'611.5
2017-Oct-17 06:30N 36°14' E 014°37'611.6
2017-Oct-17 06:00N 36°16' E 014°30'611.7
2017-Oct-17 05:30N 36°18' E 014°23'611.6
2017-Oct-17 05:00N 36°20' E 014°17'611.4
2017-Oct-17 04:30N 36°22' E 014°10'611.4
2017-Oct-17 04:00N 36°24' E 014°03'510.7
2017-Oct-17 03:30N 36°25' E 013°57'611.5
2017-Oct-17 03:00N 36°27' E 013°50'611.5
2017-Oct-17 02:31N 36°29' E 013°44'611.4
2017-Oct-17 02:00N 36°31' E 013°37'611.3
2017-Oct-17 01:31N 36°33' E 013°31'611.2
2017-Oct-17 01:01N 36°35' E 013°24'611.2
2017-Oct-17 00:30N 36°37' E 013°18'611.3
2017-Oct-17 00:00N 36°39' E 013°11'611.5
2017-Oct-16 23:28N 36°41' E 013°04'611.6
2017-Oct-16 22:55N 36°43' E 012°56'511.4
2017-Oct-16 22:28N 36°46' E 012°50'511.4
2017-Oct-16 22:00N 36°48' E 012°45'611.4
2017-Oct-16 21:29N 36°50' E 012°38'611.3
2017-Oct-16 21:00N 36°52' E 012°31'510.8
2017-Oct-16 20:30N 36°56' E 012°27'611.3
2017-Oct-16 20:00N 36°58' E 012°20'611.4
2017-Oct-16 19:30N 37°00' E 012°14'1011.6
2017-Oct-16 18:41N 37°04' E 012°02'211.5
2017-Oct-16 18:30N 37°04' E 011°60'711.7
2017-Oct-16 17:56N 37°07' E 011°52'1611.3
2017-Oct-16 16:33N 37°13' E 011°34'111.3
2017-Oct-16 16:29N 37°13' E 011°33'711.3
2017-Oct-16 15:54N 37°16' E 011°25'3811.1
2017-Oct-16 12:31N 37°28' E 010°41'011.5
2017-Oct-16 12:29N 37°28' E 010°40'41610.9
2017-Oct-14 22:16N 36°51' E 001°60'411.3
2017-Oct-14 21:56N 36°51' E 001°55'511.2
2017-Oct-14 21:30N 36°50' E 001°49'610.9
2017-Oct-14 20:57N 36°49' E 001°42'2211.0
2017-Oct-14 18:56N 36°46' E 001°15'1810.5
2017-Oct-14 17:15N 36°43' E 000°53'410.9
2017-Oct-14 16:51N 36°42' E 000°47'411.0
2017-Oct-14 16:30N 36°42' E 000°43'811.0
2017-Oct-14 15:45N 36°41' E 000°32'311.1
2017-Oct-14 15:27N 36°40' E 000°28'511.0
2017-Oct-14 15:00N 36°40' E 000°22'611.2
2017-Oct-14 14:29N 36°39' E 000°15'4011.2
2017-Oct-14 10:53N 36°33' W 000°35'511.3
2017-Oct-14 10:28N 36°32' W 000°40'511.2
2017-Oct-14 10:00N 36°32' W 000°47'610.9
2017-Oct-14 09:27N 36°31' W 000°54'810.8
2017-Oct-14 08:41N 36°29' W 001°04'811.0
2017-Oct-14 07:57N 36°28' W 001°14'811.3
2017-Oct-14 07:16N 36°27' W 001°24'1211.3
2017-Oct-14 06:15N 36°25' W 001°38'311.3
2017-Oct-14 06:00N 36°25' W 001°42'17111.5
2017-Oct-13 15:04N 36°00' W 005°11'111.8
2017-Oct-13 15:00N 35°60' W 005°12'612.5
2017-Oct-13 14:30N 35°58' W 005°20'612.8
2017-Oct-13 14:01N 35°57' W 005°27'12410.7
2017-Oct-13 02:27N 36°17' W 007°59'910.7
2017-Oct-13 01:38N 36°19' W 008°09'410.4
2017-Oct-13 01:17N 36°20' W 008°13'410.6
2017-Oct-13 00:54N 36°21' W 008°18'510.7
2017-Oct-13 00:26N 36°22' W 008°24'511.0
2017-Oct-12 23:59N 36°24' W 008°30'611.0
2017-Oct-12 23:24N 36°25' W 008°38'511.6
2017-Oct-12 22:58N 36°27' W 008°44'511.3
2017-Oct-12 22:30N 36°28' W 008°50'511.2
2017-Oct-12 22:00N 36°29' W 008°57'611.6
2017-Oct-12 21:30N 36°31' W 009°04'911.7
2017-Oct-12 20:44N 36°33' W 009°15'411.2
2017-Oct-12 20:20N 36°36' W 009°19'411.6
2017-Oct-12 20:00N 36°38' W 009°23'8310.9
2017-Oct-12 12:20N 37°58' W 009°54'411.1
2017-Oct-12 12:00N 38°02' W 009°55'611.3
2017-Oct-12 11:31N 38°07' W 009°57'2311.2
2017-Oct-12 09:29N 38°29' W 010°03'610.8
2017-Oct-12 08:58N 38°35' W 010°05'511.0
2017-Oct-12 08:31N 38°40' W 010°07'510.9
2017-Oct-12 08:00N 38°45' W 010°07'510.6
2017-Oct-12 07:30N 38°51' W 010°07'610.7
2017-Oct-12 06:59N 38°56' W 010°07'510.4
2017-Oct-12 06:31N 39°01' W 010°07'510.2
2017-Oct-12 06:01N 39°06' W 010°07'510.8
2017-Oct-12 05:30N 39°12' W 010°07'511.0
2017-Oct-12 05:01N 39°17' W 010°07'510.9
2017-Oct-12 04:31N 39°22' W 010°07'611.2
2017-Oct-12 04:00N 39°28' W 010°07'510.6
2017-Oct-12 03:31N 39°33' W 010°07'510.6
2017-Oct-12 03:00N 39°39' W 010°07'510.7
2017-Oct-12 02:30N 39°44' W 010°07'611.1
2017-Oct-12 02:01N 39°50' W 010°07'610.9
2017-Oct-12 01:30N 39°55' W 010°07'510.7
2017-Oct-12 01:00N 40°00' W 010°07'510.5
2017-Oct-12 00:30N 40°06' W 010°07'510.9
2017-Oct-12 00:00N 40°11' W 010°07'1411.1
2017-Oct-11 22:43N 40°25' W 010°07'211.2
2017-Oct-11 22:30N 40°28' W 010°07'  
2017-Oct-09 06:53N 51°46' W 005°56'511.4
2017-Oct-09 06:25N 51°51' W 005°54'512.1
2017-Oct-09 06:01N 51°56' W 005°53'712.8
2017-Oct-09 05:29N 52°03' W 005°51'613.3
2017-Oct-09 05:00N 52°09' W 005°50'714.1
2017-Oct-09 04:30N 52°16' W 005°48'714.3
2017-Oct-09 04:00N 52°23' W 005°46'714.4
2017-Oct-09 03:30N 52°30' W 005°44'714.3
2017-Oct-09 03:00N 52°37' W 005°42'7911.1
2017-Oct-08 19:53N 53°55' W 005°22'411.4
2017-Oct-08 19:30N 53°60' W 005°21'611.5
2017-Oct-08 19:00N 54°05' W 005°19'611.6
2017-Oct-08 18:30N 54°11' W 005°18'611.3
2017-Oct-08 18:00N 54°17' W 005°16'511.0
2017-Oct-08 17:30N 54°22' W 005°15'510.4
2017-Oct-08 17:00N 54°27' W 005°13'4 8.9
2017-Oct-08 16:30N 54°32' W 005°14'5 9.5
2017-Oct-08 16:00N 54°36' W 005°18'4 8.9
2017-Oct-08 15:30N 54°40' W 005°22'4 8.4
2017-Oct-08 15:00N 54°43' W 005°26'4 8.6
2017-Oct-08 14:30N 54°47' W 005°30'5 9.5
2017-Oct-08 14:00N 54°51' W 005°34'5 9.6
2017-Oct-08 13:30N 54°55' W 005°38'510.3
2017-Oct-08 13:00N 54°59' W 005°43'711.3
2017-Oct-08 12:23N 55°06' W 005°49'612.9
2017-Oct-08 11:54N 55°11' W 005°55'513.9
2017-Oct-08 11:30N 55°16' W 005°60'714.0
2017-Oct-08 11:00N 55°21' W 006°08'713.4
2017-Oct-08 10:30N 55°23' W 006°19'713.7
2017-Oct-08 10:01N 55°27' W 006°29'714.0
2017-Oct-08 09:31N 55°32' W 006°37'714.6
2017-Oct-08 09:01N 55°38' W 006°45'714.5
2017-Oct-08 08:30N 55°44' W 006°53'712.8
2017-Oct-08 07:57N 55°49' W 007°00'611.7
2017-Oct-08 07:28N 55°54' W 007°06'  

Dump ship's entire track history